createdAt,value
2023-03-04T00:02:09.816Z,33.87
2023-03-04T00:04:36.925Z,31.73
2023-03-04T00:07:04.182Z,31.57
2023-03-04T00:09:31.320Z,35.60
2023-03-04T00:11:58.463Z,34.17
2023-03-04T00:14:25.556Z,35.17
2023-03-04T00:16:52.679Z,33.90
2023-03-04T00:19:19.810Z,33.77
2023-03-04T00:21:46.895Z,33.43
2023-03-04T00:24:14.027Z,40.33
2023-03-04T00:26:41.152Z,36.23
2023-03-04T00:29:08.258Z,37.07
2023-03-04T00:31:35.423Z,36.00
2023-03-04T00:34:02.574Z,33.57
2023-03-04T00:36:29.710Z,31.23
2023-03-04T00:38:56.840Z,37.23
2023-03-04T00:41:23.975Z,38.33
2023-03-04T00:43:51.162Z,32.90
2023-03-04T00:46:18.343Z,32.60
2023-03-04T00:48:45.511Z,34.80
2023-03-04T00:51:12.640Z,34.63
2023-03-04T00:53:39.841Z,44.17
2023-03-04T00:56:07.268Z,37.27
2023-03-04T00:58:34.400Z,36.30
2023-03-04T01:01:01.625Z,40.47
2023-03-04T01:03:31.423Z,37.93
2023-03-04T01:05:58.638Z,39.57
2023-03-04T01:08:26.474Z,40.60
2023-03-04T01:10:53.666Z,39.27
2023-03-04T01:13:20.775Z,39.57
2023-03-04T01:15:47.873Z,41.93
2023-03-04T01:18:15.093Z,42.97
2023-03-04T01:20:42.231Z,47.60
2023-03-04T01:23:09.390Z,46.17
2023-03-04T01:25:36.512Z,48.03
2023-03-04T01:28:03.734Z,54.33
2023-03-04T01:30:30.888Z,59.80
2023-03-04T01:32:58.057Z,60.77
2023-03-04T01:35:25.245Z,64.13
2023-03-04T01:37:52.355Z,56.37
2023-03-04T01:40:19.663Z,67.90
2023-03-04T01:42:46.918Z,62.67
2023-03-04T01:45:18.336Z,58.53
2023-03-04T01:47:48.547Z,59.17
2023-03-04T01:50:35.984Z,54.03
2023-03-04T01:53:04.648Z,57.33
2023-03-04T01:55:31.866Z,53.33
2023-03-04T01:57:59.141Z,50.70
2023-03-04T02:00:31.327Z,59.13
2023-03-04T02:03:19.846Z,56.70
2023-03-04T02:05:49.095Z,54.60
2023-03-04T02:08:16.904Z,51.67
2023-03-04T02:10:44.339Z,45.67
2023-03-04T02:13:12.781Z,50.73
2023-03-04T02:15:40.149Z,50.50
2023-03-04T02:18:24.277Z,47.10
2023-03-04T02:20:51.364Z,50.03
2023-03-04T02:23:29.503Z,50.83
2023-03-04T02:26:15.352Z,46.27
2023-03-04T02:28:42.689Z,49.90
2023-03-04T02:31:17.411Z,47.53
2023-03-04T02:33:44.538Z,49.90
2023-03-04T02:36:11.732Z,51.63
2023-03-04T02:38:38.898Z,47.23
2023-03-04T02:41:06.149Z,44.07
2023-03-04T02:43:33.285Z,42.70
2023-03-04T02:46:00.469Z,40.73
2023-03-04T02:48:27.592Z,39.67
2023-03-04T02:50:55.074Z,38.87
2023-03-04T02:53:22.368Z,36.00
2023-03-04T02:55:49.797Z,36.03
2023-03-04T02:58:16.977Z,35.17
2023-03-04T03:00:44.091Z,36.00
2023-03-04T03:03:11.278Z,33.97
2023-03-04T03:05:39.027Z,35.60
2023-03-04T03:08:06.300Z,35.30
2023-03-04T03:10:33.475Z,38.07
2023-03-04T03:13:00.601Z,39.47
2023-03-04T03:15:27.857Z,40.43
2023-03-04T03:17:55.023Z,37.30
2023-03-04T03:20:22.162Z,35.47
2023-03-04T03:22:49.270Z,36.43
2023-03-04T03:25:17.231Z,33.40
2023-03-04T03:27:44.401Z,38.17
2023-03-04T03:30:14.107Z,34.97
2023-03-04T03:32:41.241Z,35.43
2023-03-04T03:35:08.533Z,36.97
2023-03-04T03:37:35.650Z,34.50
2023-03-04T03:40:02.805Z,32.63
2023-03-04T03:42:30.076Z,32.50
2023-03-04T03:44:57.243Z,35.77
2023-03-04T03:47:25.186Z,35.10
2023-03-04T03:49:52.304Z,37.23
2023-03-04T03:52:19.494Z,32.27
2023-03-04T03:54:46.675Z,29.97
2023-03-04T03:57:13.849Z,32.63
2023-03-04T03:59:41.078Z,32.47
2023-03-04T04:02:08.319Z,33.83
2023-03-04T04:04:35.514Z,34.83
2023-03-04T04:07:02.667Z,36.47
2023-03-04T04:09:29.778Z,32.03
2023-03-04T04:11:57.556Z,36.97
2023-03-04T04:14:24.743Z,33.37
2023-03-04T04:16:51.937Z,38.07
2023-03-04T04:19:20.195Z,33.23
2023-03-04T04:21:47.343Z,34.03
2023-03-04T04:24:14.561Z,39.13
2023-03-04T04:26:41.819Z,33.93
2023-03-04T04:29:09.291Z,37.17
2023-03-04T04:31:36.886Z,34.97
2023-03-04T04:34:03.981Z,34.60
2023-03-04T04:36:31.122Z,32.60
2023-03-04T04:38:58.260Z,32.40
2023-03-04T04:41:27.042Z,34.20
2023-03-04T04:43:54.169Z,32.90
2023-03-04T04:46:21.674Z,33.07
2023-03-04T04:48:48.868Z,30.77
2023-03-04T04:51:16.288Z,34.33
2023-03-04T04:53:43.454Z,33.53
2023-03-04T04:56:14.992Z,35.77
2023-03-04T04:58:42.111Z,40.03
2023-03-04T05:01:09.325Z,36.57
2023-03-04T05:03:37.447Z,33.33
2023-03-04T05:06:05.850Z,33.83
2023-03-04T05:08:32.967Z,34.43
2023-03-04T05:11:00.121Z,35.83
2023-03-04T05:13:27.229Z,31.37
2023-03-04T05:15:55.555Z,34.80
2023-03-04T05:18:23.102Z,32.60
2023-03-04T05:20:54.060Z,36.07
2023-03-04T05:23:21.196Z,32.40
2023-03-04T05:25:48.713Z,30.83
2023-03-04T05:28:16.019Z,33.63
2023-03-04T05:30:44.862Z,33.10
2023-03-04T05:33:12.652Z,33.30
2023-03-04T05:35:40.496Z,33.57
2023-03-04T05:38:08.773Z,33.23
2023-03-04T05:40:36.177Z,32.40
2023-03-04T05:43:03.465Z,35.63
2023-03-04T05:45:30.586Z,35.60
2023-03-04T05:47:57.741Z,34.27
2023-03-04T05:50:24.858Z,33.23
2023-03-04T05:52:52.042Z,33.77
2023-03-04T05:55:19.222Z,34.70
2023-03-04T05:57:46.374Z,39.60
2023-03-04T06:00:14.553Z,37.30
2023-03-04T06:02:41.879Z,33.77
2023-03-04T06:05:09.677Z,37.17
2023-03-04T06:07:36.835Z,37.23
2023-03-04T06:10:04.321Z,36.33
2023-03-04T06:12:31.460Z,30.17
2023-03-04T06:14:58.665Z,31.93
2023-03-04T06:17:25.753Z,30.83
2023-03-04T06:19:52.847Z,30.93
2023-03-04T06:22:19.970Z,33.43
2023-03-04T06:24:47.078Z,30.53
2023-03-04T06:27:14.172Z,29.03
2023-03-04T06:29:41.318Z,32.30
2023-03-04T06:32:08.456Z,30.87
2023-03-04T06:34:36.302Z,31.17
2023-03-04T06:37:03.426Z,30.40
2023-03-04T06:39:30.586Z,28.67
2023-03-04T06:41:57.773Z,29.13
2023-03-04T06:44:25.091Z,33.30
2023-03-04T06:46:52.268Z,34.80
2023-03-04T06:49:19.495Z,31.33
2023-03-04T06:51:46.567Z,26.93
2023-03-04T06:54:13.711Z,30.07
2023-03-04T06:56:40.846Z,28.07
2023-03-04T06:59:07.962Z,32.23
2023-03-04T07:01:35.165Z,24.63
2023-03-04T07:04:03.005Z,28.50
2023-03-04T07:06:30.462Z,30.30
2023-03-04T07:08:57.771Z,25.30
2023-03-04T07:11:25.448Z,28.83
2023-03-04T07:13:52.998Z,29.23
2023-03-04T07:16:21.507Z,30.57
2023-03-04T07:18:48.811Z,28.13
2023-03-04T07:21:16.752Z,28.77
2023-03-04T07:23:44.094Z,26.60
2023-03-04T07:26:11.241Z,30.53
2023-03-04T07:28:38.507Z,28.77
2023-03-04T07:31:12.610Z,26.73
2023-03-04T07:33:39.780Z,27.13
2023-03-04T07:36:07.026Z,32.40
2023-03-04T07:38:34.219Z,29.13
2023-03-04T07:41:01.634Z,32.20
2023-03-04T07:43:28.906Z,31.47
2023-03-04T07:46:00.619Z,27.70
2023-03-04T07:48:27.988Z,28.13
2023-03-04T07:51:05.382Z,27.83
2023-03-04T07:53:33.073Z,28.27
2023-03-04T07:56:02.516Z,27.40
2023-03-04T07:58:30.189Z,29.60
2023-03-04T08:00:57.326Z,24.67
2023-03-04T08:03:24.556Z,28.73
2023-03-04T08:05:51.947Z,26.97
2023-03-04T08:08:19.084Z,27.03
2023-03-04T08:10:46.392Z,23.23
2023-03-04T08:13:13.531Z,26.73
2023-03-04T08:15:41.654Z,29.13
2023-03-04T08:18:08.806Z,26.40
2023-03-04T08:20:35.913Z,31.30
2023-03-04T08:23:03.196Z,27.33
2023-03-04T08:25:30.350Z,27.57
2023-03-04T08:27:57.465Z,25.17
2023-03-04T08:30:24.654Z,26.80
2023-03-04T08:32:53.018Z,23.57
2023-03-04T08:35:20.254Z,23.47
2023-03-04T08:37:47.464Z,23.57
2023-03-04T08:40:15.264Z,25.43
2023-03-04T08:42:42.810Z,24.23
2023-03-04T08:45:10.531Z,25.43
2023-03-04T08:47:37.879Z,25.40
2023-03-04T08:50:06.370Z,25.43
2023-03-04T08:52:33.558Z,25.90
2023-03-04T08:55:00.738Z,24.43
2023-03-04T08:57:27.911Z,22.47
2023-03-04T08:59:55.064Z,21.40
2023-03-04T09:02:22.195Z,22.70
2023-03-04T09:04:49.285Z,27.77
2023-03-04T09:07:16.370Z,24.10
2023-03-04T09:09:43.519Z,24.53
2023-03-04T09:12:10.748Z,25.43
2023-03-04T09:14:37.926Z,24.37
2023-03-04T09:17:05.729Z,21.93
2023-03-04T09:19:32.881Z,25.17
2023-03-04T09:22:00.088Z,22.30
2023-03-04T09:24:27.270Z,20.93
2023-03-04T09:26:55.258Z,21.43
2023-03-04T09:29:22.847Z,23.23
2023-03-04T09:31:49.965Z,23.17
2023-03-04T09:34:17.190Z,32.00
2023-03-04T09:36:44.387Z,23.93
2023-03-04T09:39:11.570Z,26.73
2023-03-04T09:41:41.264Z,25.00
2023-03-04T09:44:14.589Z,22.60
2023-03-04T09:46:42.422Z,23.33
2023-03-04T09:49:12.612Z,22.40
2023-03-04T09:51:47.935Z,20.40
2023-03-04T09:54:34.016Z,26.13
2023-03-04T09:57:07.117Z,19.63
2023-03-04T09:59:42.286Z,23.70
2023-03-04T10:02:17.468Z,25.13
2023-03-04T10:04:49.797Z,25.20
2023-03-04T10:07:19.554Z,27.10
2023-03-04T10:09:48.305Z,23.33
2023-03-04T10:12:16.706Z,27.77
2023-03-04T10:14:45.849Z,25.33
2023-03-04T10:17:17.003Z,22.10
2023-03-04T10:20:05.116Z,21.63
2023-03-04T10:22:47.436Z,28.13
2023-03-04T10:25:19.690Z,27.63
2023-03-04T10:27:50.698Z,24.97
2023-03-04T10:30:40.872Z,20.97
2023-03-04T10:33:15.005Z,24.93
2023-03-04T10:35:44.579Z,21.57
2023-03-04T10:38:13.806Z,25.10
2023-03-04T10:40:41.818Z,21.23
2023-03-04T10:43:17.841Z,25.97
2023-03-04T10:45:45.738Z,26.67
2023-03-04T10:48:24.153Z,26.13
2023-03-04T10:50:51.407Z,24.87
2023-03-04T10:53:29.577Z,23.67
2023-03-04T10:55:56.785Z,25.87
2023-03-04T10:58:23.853Z,27.13
2023-03-04T11:01:00.218Z,29.00
2023-03-04T11:03:32.665Z,33.40
2023-03-04T11:06:07.288Z,23.33
2023-03-04T11:08:34.433Z,33.63
2023-03-04T11:11:01.598Z,28.37
2023-03-04T11:13:28.767Z,24.70
2023-03-04T11:15:58.180Z,22.87
2023-03-04T11:18:27.154Z,34.67
2023-03-04T11:20:54.844Z,22.87
2023-03-04T11:23:40.686Z,21.23
2023-03-04T11:26:16.838Z,27.60
2023-03-04T11:29:01.913Z,24.93
2023-03-04T11:31:32.953Z,21.60
2023-03-04T11:34:14.741Z,31.13
2023-03-04T11:36:55.121Z,27.03
2023-03-04T11:39:32.155Z,26.03
2023-03-04T11:42:01.583Z,23.87
2023-03-04T11:44:28.864Z,21.03
2023-03-04T11:46:56.019Z,24.60
2023-03-04T11:49:50.751Z,26.63
2023-03-04T11:52:28.529Z,21.70
2023-03-04T11:55:22.991Z,23.27
2023-03-04T11:57:56.774Z,24.20
2023-03-04T12:00:31.584Z,24.90
2023-03-04T12:03:04.558Z,19.50
2023-03-04T12:05:50.164Z,22.43
2023-03-04T12:08:22.523Z,24.13
2023-03-04T12:10:52.659Z,23.80
2023-03-04T12:13:36.831Z,23.63
2023-03-04T12:16:09.932Z,26.23
2023-03-04T12:19:02.834Z,25.20
2023-03-04T12:21:38.968Z,29.03
2023-03-04T12:24:24.784Z,24.43
2023-03-04T12:26:56.197Z,24.27
2023-03-04T12:29:30.316Z,23.20
2023-03-04T12:32:05.076Z,18.60
2023-03-04T12:34:43.999Z,29.03
2023-03-04T12:37:35.569Z,25.00
2023-03-04T12:40:21.676Z,19.97
2023-03-04T12:43:00.927Z,23.93
2023-03-04T12:45:37.137Z,21.10
2023-03-04T12:48:09.734Z,23.40
2023-03-04T12:50:57.113Z,18.53
2023-03-04T12:53:44.484Z,20.23
2023-03-04T12:56:31.847Z,24.63
2023-03-04T12:58:59.488Z,29.17
2023-03-04T13:01:29.982Z,25.27
2023-03-04T13:03:57.102Z,22.53
2023-03-04T13:06:43.629Z,21.77
2023-03-04T13:09:19.195Z,22.77
2023-03-04T13:11:47.359Z,22.67
2023-03-04T13:14:15.100Z,23.20
2023-03-04T13:16:47.021Z,22.77
2023-03-04T13:19:34.137Z,23.50
2023-03-04T13:22:01.237Z,21.83
2023-03-04T13:24:50.185Z,30.90
2023-03-04T13:27:36.231Z,20.70
2023-03-04T13:30:03.379Z,20.13
2023-03-04T13:32:38.360Z,22.83
2023-03-04T13:35:25.484Z,22.70
2023-03-04T13:38:00.024Z,21.83
2023-03-04T13:40:33.367Z,31.67
2023-03-04T13:43:24.602Z,27.00
2023-03-04T13:45:51.813Z,30.70
2023-03-04T13:48:27.456Z,22.43
2023-03-04T13:50:54.690Z,22.97
2023-03-04T13:53:24.069Z,18.43
2023-03-04T13:56:06.261Z,18.50
2023-03-04T13:58:34.337Z,22.20
2023-03-04T14:01:01.550Z,23.33
2023-03-04T14:03:30.846Z,19.50
2023-03-04T14:06:17.229Z,16.00
2023-03-04T14:08:45.107Z,15.07
2023-03-04T14:11:17.225Z,18.40
2023-03-04T14:13:44.716Z,15.47
2023-03-04T14:16:11.994Z,16.77
2023-03-04T14:18:39.229Z,14.47
2023-03-04T14:21:07.067Z,17.83
2023-03-04T14:23:35.965Z,19.17
2023-03-04T14:26:06.925Z,15.20
2023-03-04T14:28:34.139Z,16.67
2023-03-04T14:31:01.696Z,22.20
2023-03-04T14:33:30.132Z,19.27
2023-03-04T14:35:59.338Z,16.43
2023-03-04T14:38:34.418Z,19.87
2023-03-04T14:41:12.816Z,19.13
2023-03-04T14:43:49.204Z,24.93
2023-03-04T14:46:18.837Z,22.73
2023-03-04T14:48:48.321Z,25.43
2023-03-04T14:51:34.282Z,23.10
2023-03-04T14:54:01.464Z,26.00
2023-03-04T14:56:29.473Z,28.30
2023-03-04T14:58:58.246Z,33.10
2023-03-04T15:01:33.455Z,30.57
2023-03-04T15:04:05.289Z,21.33
2023-03-04T15:06:34.352Z,28.00
2023-03-04T15:09:03.130Z,29.47
2023-03-04T15:11:32.114Z,23.43
2023-03-04T15:14:00.247Z,27.80
2023-03-04T15:16:30.067Z,35.43
2023-03-04T15:18:58.407Z,29.60
2023-03-04T15:21:30.470Z,29.60
2023-03-04T15:23:57.626Z,26.77
2023-03-04T15:26:25.809Z,29.70
2023-03-04T15:28:53.034Z,28.00
2023-03-04T15:31:21.879Z,29.50
2023-03-04T15:33:49.238Z,27.40
2023-03-04T15:36:18.020Z,33.17
2023-03-04T15:38:47.704Z,29.40
2023-03-04T15:41:16.896Z,29.17
2023-03-04T15:43:43.986Z,32.13
2023-03-04T15:46:12.686Z,29.83
2023-03-04T15:48:39.949Z,37.00
2023-03-04T15:51:12.328Z,66.87
2023-03-04T15:53:48.322Z,72.87
2023-03-04T15:56:20.065Z,128.00
2023-03-04T15:58:57.398Z,51.77
2023-03-04T16:01:24.957Z,28.90
2023-03-04T16:03:53.806Z,28.70
2023-03-04T16:06:23.367Z,35.07
2023-03-04T16:08:51.253Z,35.93
2023-03-04T16:11:19.949Z,29.20
2023-03-04T16:13:47.054Z,30.23
2023-03-04T16:16:14.741Z,35.57
2023-03-04T16:18:42.370Z,30.47
2023-03-04T16:21:13.251Z,33.97
2023-03-04T16:23:41.830Z,33.70
2023-03-04T16:26:16.153Z,36.13
2023-03-04T16:28:43.535Z,30.97
2023-03-04T16:31:11.823Z,40.00
2023-03-04T16:33:39.040Z,38.37
2023-03-04T16:36:17.178Z,34.03
2023-03-04T16:38:44.361Z,29.07
2023-03-04T16:41:13.143Z,34.50
2023-03-04T16:43:41.105Z,33.60
2023-03-04T16:46:08.484Z,36.70
2023-03-04T16:48:35.614Z,34.83
2023-03-04T16:51:08.186Z,43.23
2023-03-04T16:53:36.782Z,34.57
2023-03-04T16:56:07.810Z,38.10
2023-03-04T16:58:35.269Z,30.87
2023-03-04T17:01:02.537Z,33.10
2023-03-04T17:03:29.775Z,35.63
2023-03-04T17:05:56.893Z,39.20
2023-03-04T17:08:24.010Z,41.33
2023-03-04T17:10:52.447Z,59.27
2023-03-04T17:13:19.575Z,52.00
2023-03-04T17:15:46.932Z,37.50
2023-03-04T17:18:14.077Z,38.23
2023-03-04T17:20:41.194Z,34.00
2023-03-04T17:23:08.324Z,37.07
2023-03-04T17:25:35.736Z,35.97
2023-03-04T17:28:02.894Z,32.00
2023-03-04T17:30:30.101Z,36.27
2023-03-04T17:32:57.208Z,30.03
2023-03-04T17:35:25.743Z,41.23
2023-03-04T17:37:52.969Z,35.43
2023-03-04T17:40:20.166Z,34.93
2023-03-04T17:42:47.310Z,38.33
2023-03-04T17:45:14.437Z,32.90
2023-03-04T17:47:42.114Z,31.43
2023-03-04T17:50:09.578Z,33.80
2023-03-04T17:52:36.725Z,37.67
2023-03-04T17:55:04.170Z,32.97
2023-03-04T17:57:31.293Z,30.27
2023-03-04T17:59:58.483Z,38.77
2023-03-04T18:02:25.743Z,30.87
2023-03-04T18:04:52.996Z,30.37
2023-03-04T18:07:20.190Z,29.90
2023-03-04T18:09:47.350Z,34.33
2023-03-04T18:12:15.069Z,43.40
2023-03-04T18:14:42.231Z,36.67
2023-03-04T18:17:09.439Z,30.80
2023-03-04T18:19:36.623Z,29.73
2023-03-04T18:22:03.750Z,33.97
2023-03-04T18:24:31.455Z,29.93
2023-03-04T18:26:58.668Z,29.20
2023-03-04T18:29:26.093Z,33.43
2023-03-04T18:31:53.235Z,26.50
2023-03-04T18:34:20.379Z,29.07
2023-03-04T18:36:48.007Z,34.13
2023-03-04T18:39:17.454Z,27.93
2023-03-04T18:41:44.661Z,29.43
2023-03-04T18:44:11.809Z,31.77
2023-03-04T18:46:43.277Z,31.90
2023-03-04T18:49:10.874Z,29.27
2023-03-04T18:51:38.030Z,28.20
2023-03-04T18:54:05.434Z,32.63
2023-03-04T18:56:39.115Z,32.03
2023-03-04T18:59:09.245Z,35.50
2023-03-04T19:01:37.292Z,28.07
2023-03-04T19:04:05.676Z,33.10
2023-03-04T19:06:33.489Z,31.17
2023-03-04T19:09:00.812Z,32.33
2023-03-04T19:11:29.874Z,26.47
2023-03-04T19:13:57.042Z,30.97
2023-03-04T19:16:24.510Z,27.27
2023-03-04T19:18:51.685Z,28.47
2023-03-04T19:21:19.410Z,28.10
2023-03-04T19:23:46.501Z,29.53
2023-03-04T19:26:15.342Z,34.63
2023-03-04T19:28:42.881Z,31.10
2023-03-04T19:31:11.168Z,32.47
2023-03-04T19:33:41.567Z,39.30
2023-03-04T19:36:09.917Z,34.83
2023-03-04T19:38:37.377Z,36.33
2023-03-04T19:41:11.971Z,30.57
2023-03-04T19:43:39.467Z,31.17
2023-03-04T19:46:10.619Z,29.50
2023-03-04T19:48:38.491Z,32.77
2023-03-04T19:51:13.441Z,28.27
2023-03-04T19:53:40.534Z,30.33
2023-03-04T19:56:07.784Z,30.20
2023-03-04T19:58:34.868Z,36.00
2023-03-04T20:01:02.045Z,31.00
2023-03-04T20:03:29.409Z,32.43
2023-03-04T20:06:03.859Z,30.50
2023-03-04T20:08:30.975Z,29.67
2023-03-04T20:10:58.082Z,38.40
2023-03-04T20:13:25.333Z,34.73
2023-03-04T20:15:52.487Z,31.63
2023-03-04T20:18:19.654Z,30.60
2023-03-04T20:20:48.841Z,35.83
2023-03-04T20:23:20.208Z,35.60
2023-03-04T20:25:47.566Z,34.07
2023-03-04T20:28:14.706Z,37.50
2023-03-04T20:30:41.812Z,30.93
2023-03-04T20:33:08.975Z,32.47
2023-03-04T20:35:36.121Z,32.20
2023-03-04T20:38:03.734Z,34.93
2023-03-04T20:40:30.862Z,34.80
2023-03-04T20:42:58.006Z,34.57
2023-03-04T20:45:25.132Z,35.00
2023-03-04T20:47:52.328Z,34.73
2023-03-04T20:50:19.439Z,29.17
2023-03-04T20:52:48.140Z,42.80
2023-03-04T20:55:15.263Z,36.90
2023-03-04T20:57:42.379Z,40.63
2023-03-04T21:00:10.100Z,33.93
2023-03-04T21:02:37.361Z,39.57
2023-03-04T21:05:04.719Z,37.40
2023-03-04T21:07:31.846Z,37.20
2023-03-04T21:09:58.999Z,34.97
2023-03-04T21:12:26.173Z,36.10
2023-03-04T21:14:53.361Z,29.77
2023-03-04T21:17:20.561Z,36.10
2023-03-04T21:19:47.757Z,33.70
2023-03-04T21:22:16.390Z,33.10
2023-03-04T21:24:43.961Z,38.60
2023-03-04T21:27:13.002Z,36.33
2023-03-04T21:29:40.572Z,35.10
2023-03-04T21:32:23.233Z,42.60
2023-03-04T21:34:52.293Z,35.13
2023-03-04T21:37:20.223Z,38.27
2023-03-04T21:39:47.424Z,41.63
2023-03-04T21:42:14.637Z,35.63
2023-03-04T21:44:50.451Z,37.13
2023-03-04T21:47:19.176Z,38.00
2023-03-04T21:49:46.314Z,37.93
2023-03-04T21:52:13.495Z,38.20
2023-03-04T21:54:40.616Z,35.47
2023-03-04T21:57:07.738Z,37.97
2023-03-04T21:59:34.835Z,36.63
2023-03-04T22:02:02.367Z,36.07
2023-03-04T22:04:29.537Z,39.73
2023-03-04T22:06:56.632Z,40.37
2023-03-04T22:09:23.961Z,36.57
2023-03-04T22:11:51.114Z,42.57
2023-03-04T22:14:18.225Z,42.50
2023-03-04T22:16:54.543Z,42.57
2023-03-04T22:19:23.530Z,41.57
2023-03-04T22:21:51.554Z,46.07
2023-03-04T22:24:18.763Z,37.50
2023-03-04T22:26:45.988Z,40.40
2023-03-04T22:29:13.158Z,38.37
2023-03-04T22:31:40.423Z,37.90
2023-03-04T22:34:09.065Z,39.53
2023-03-04T22:36:37.509Z,38.73
2023-03-04T22:39:05.582Z,39.23
2023-03-04T22:41:32.736Z,43.13
2023-03-04T22:44:00.235Z,39.77
2023-03-04T22:46:28.809Z,42.57
2023-03-04T22:48:57.372Z,42.83
2023-03-04T22:51:24.689Z,44.00
2023-03-04T22:53:52.164Z,43.17
2023-03-04T22:56:19.952Z,43.27
2023-03-04T22:58:47.122Z,42.57
2023-03-04T23:01:15.163Z,46.07
2023-03-04T23:03:42.968Z,42.23
2023-03-04T23:06:12.992Z,44.30
2023-03-04T23:08:41.454Z,42.77
2023-03-04T23:11:10.418Z,48.97
2023-03-04T23:13:37.848Z,42.23
2023-03-04T23:16:07.830Z,45.20
2023-03-04T23:18:35.503Z,42.40
2023-03-04T23:21:13.021Z,45.30
2023-03-04T23:23:41.128Z,39.07
2023-03-04T23:26:14.173Z,48.93
2023-03-04T23:28:41.251Z,44.30
2023-03-04T23:31:08.445Z,43.33
2023-03-04T23:33:35.544Z,51.20
2023-03-04T23:36:02.980Z,43.27
2023-03-04T23:38:30.059Z,44.93
2023-03-04T23:40:57.361Z,46.83
2023-03-04T23:43:27.095Z,43.57
2023-03-04T23:45:54.289Z,47.27
2023-03-04T23:48:21.426Z,41.10
2023-03-04T23:50:55.184Z,45.50
2023-03-04T23:53:22.360Z,49.77
2023-03-04T23:55:49.463Z,44.90
2023-03-04T23:58:16.662Z,42.93
